Time;durP1;ratioP1;P1;durP2;ratioP2;P2;SDS_P1;SDS_P2;PMS_P1;PMS_P2;Temp;Humidity;BMP_temperature;BMP_pressure;BME280_temperature;BME280_humidity;BME280_pressure;Samples;Min_cycle;Max_cycle;Signal;HPM_P1;HPM_P2
2023/05/13 00:00:23;;;;;;;;;;;;;;;10.71;nan;100626.06;5016192;28;20141;-81
2023/05/13 00:02:49;;;;;;;;;;;;;;;10.65;nan;100624.81;5026152;28;19921;-81
2023/05/13 00:05:14;;;;;;;;;;;;;;;10.58;nan;100626.41;5040235;28;20081;-81
2023/05/13 00:07:40;;;;;;;;;;;;;;;10.51;nan;100627.97;5021116;28;19925;-81
2023/05/13 00:10:05;;;;;;;;;;;;;;;10.44;nan;100622.47;5024138;28;19921;-80
2023/05/13 00:12:31;;;;;;;;;;;;;;;10.37;nan;100629.34;5029518;28;19974;-80
2023/05/13 00:14:56;;;;;;;;;;;;;;;10.26;nan;100622.41;5025276;28;19921;-81
2023/05/13 00:17:21;;;;;;;;;;;;;;;10.19;nan;100624.78;5028809;28;19980;-81
2023/05/13 00:19:46;;;;;;;;;;;;;;;10.13;nan;100624.53;5022037;28;20399;-81
2023/05/13 00:22:11;;;;;;;;;;;;;;;10.10;nan;100609.00;5024688;28;20403;-81
2023/05/13 00:24:37;;;;;;;;;;;;;;;10.12;nan;100607.88;5025275;28;19928;-81
2023/05/13 00:27:02;;;;;;;;;;;;;;;10.10;nan;100606.34;5023894;28;20003;-81
2023/05/13 00:29:27;;;;;;;;;;;;;;;10.05;nan;100612.06;5028030;28;19929;-81
2023/05/13 00:31:54;;;;;;;;;;;;;;;9.99;nan;100612.66;5019321;28;21291;-80
2023/05/13 00:34:19;;;;;;;;;;;;;;;9.91;nan;100608.09;5026175;28;19992;-81
2023/05/13 00:36:45;;;;;;;;;;;;;;;9.87;nan;100611.19;5013793;28;19929;-81
2023/05/13 00:39:10;;;;;;;;;;;;;;;9.82;nan;100616.06;5028672;28;19933;-81
2023/05/13 00:41:35;;;;;;;;;;;;;;;9.76;nan;100612.19;5026908;28;19925;-81
2023/05/13 00:44:01;;;;;;;;;;;;;;;9.70;nan;100610.13;5015989;28;19925;-81
2023/05/13 00:46:29;;;;;;;;;;;;;;;9.67;nan;100610.41;5015455;28;19933;-81
2023/05/13 00:48:54;;;;;;;;;;;;;;;9.64;nan;100611.53;5022380;28;19921;-81
2023/05/13 00:51:19;;;;;;;;;;;;;;;9.61;nan;100608.38;5021321;28;20024;-81
2023/05/13 00:53:45;;;;;;;;;;;;;;;9.56;nan;100611.44;5027935;28;20416;-80
2023/05/13 00:56:10;;;;;;;;;;;;;;;9.52;nan;100616.16;5031033;28;19917;-81
2023/05/13 00:58:35;;;;;;;;;;;;;;;9.57;nan;100615.72;5027573;28;19960;-82
2023/05/13 01:01:30;;;;;;;;;;;;;;;9.57;nan;100618.38;5033290;28;20482;-82
2023/05/13 01:03:55;;;;;;;;;;;;;;;9.57;nan;100610.44;4973785;28;19929;-82
2023/05/13 01:06:25;;;;;;;;;;;;;;;9.57;nan;100621.00;5023470;28;19926;-82
2023/05/13 01:08:50;;;;;;;;;;;;;;;9.58;nan;100620.00;5024330;28;19928;-83
2023/05/13 01:11:20;;;;;;;;;;;;;;;9.63;nan;100609.88;5022049;28;19925;-82
2023/05/13 01:13:47;;;;;;;;;;;;;;;9.66;nan;100617.50;5016439;28;19989;-82
2023/05/13 01:16:17;;;;;;;;;;;;;;;9.68;nan;100617.38;5015981;28;19922;-82
2023/05/13 01:18:43;;;;;;;;;;;;;;;9.71;nan;100614.44;5019891;28;20014;-82
2023/05/13 01:21:10;;;;;;;;;;;;;;;9.76;nan;100612.19;5043914;28;19921;-82
2023/05/13 01:23:36;;;;;;;;;;;;;;;9.76;nan;100615.66;5033412;28;19934;-82
2023/05/13 01:26:02;;;;;;;;;;;;;;;9.78;nan;100613.72;5025548;28;20036;-82
2023/05/13 01:28:27;;;;;;;;;;;;;;;9.81;nan;100615.22;5026167;28;19957;-82
2023/05/13 01:30:52;;;;;;;;;;;;;;;9.81;nan;100606.47;5027815;28;19928;-82
2023/05/13 01:33:18;;;;;;;;;;;;;;;9.83;nan;100607.19;5023423;28;19921;-82
2023/05/13 01:35:44;;;;;;;;;;;;;;;9.84;nan;100606.19;5024218;28;20310;-82
2023/05/13 01:38:10;;;;;;;;;;;;;;;9.84;nan;100606.19;5019258;28;19961;-82
2023/05/13 01:40:36;;;;;;;;;;;;;;;9.84;nan;100611.47;5025815;28;19944;-82
2023/05/13 01:43:01;;;;;;;;;;;;;;;9.88;nan;100610.22;5024311;28;19909;-82
2023/05/13 01:45:31;;;;;;;;;;;;;;;9.93;nan;100616.72;5028290;28;19991;-82
2023/05/13 01:47:56;;;;;;;;;;;;;;;9.97;nan;100620.72;5015306;28;19932;-82
2023/05/13 01:50:21;;;;;;;;;;;;;;;9.98;nan;100621.56;5017039;28;19964;-82
2023/05/13 01:52:46;;;;;;;;;;;;;;;9.95;nan;100620.03;5018184;28;19921;-82
2023/05/13 01:55:12;;;;;;;;;;;;;;;9.88;nan;100628.69;5038539;28;19921;-82
2023/05/13 01:57:37;;;;;;;;;;;;;;;9.90;nan;100613.53;5022609;28;19921;-82
2023/05/13 02:00:03;;;;;;;;;;;;;;;9.84;nan;100616.75;5024249;28;19926;-82
2023/05/13 02:02:28;;;;;;;;;;;;;;;9.82;nan;100613.41;5022461;28;19987;-82
2023/05/13 02:04:53;;;;;;;;;;;;;;;9.77;nan;100613.84;5017089;28;19921;-82
2023/05/13 02:07:20;;;;;;;;;;;;;;;9.75;nan;100611.38;5020736;28;19971;-82
2023/05/13 02:09:45;;;;;;;;;;;;;;;9.71;nan;100620.53;5020426;28;19952;-82
2023/05/13 02:12:10;;;;;;;;;;;;;;;9.65;nan;100610.53;5017716;28;19921;-82
2023/05/13 02:14:36;;;;;;;;;;;;;;;9.59;nan;100619.06;5017825;28;20659;-82
2023/05/13 02:17:02;;;;;;;;;;;;;;;9.59;nan;100619.06;5014961;28;19928;-82
2023/05/13 02:19:27;;;;;;;;;;;;;;;9.62;nan;100620.56;5014348;28;19917;-82
2023/05/13 02:21:52;;;;;;;;;;;;;;;9.57;nan;100619.19;5017017;28;19930;-82
2023/05/13 02:24:17;;;;;;;;;;;;;;;9.55;nan;100615.03;5024674;28;20328;-82
2023/05/13 02:26:43;;;;;;;;;;;;;;;9.47;nan;100622.84;5018634;28;19926;-82
2023/05/13 02:29:09;;;;;;;;;;;;;;;9.35;nan;100622.16;5009944;28;20122;-82
2023/05/13 02:31:35;;;;;;;;;;;;;;;9.25;nan;100621.34;5023959;28;19984;-82
2023/05/13 02:34:00;;;;;;;;;;;;;;;9.14;nan;100624.97;5024360;28;19962;-82
2023/05/13 02:36:25;;;;;;;;;;;;;;;9.06;nan;100628.31;5013484;28;19929;-82
2023/05/13 02:38:51;;;;;;;;;;;;;;;8.99;nan;100632.47;5022354;28;19944;-82
2023/05/13 02:41:16;;;;;;;;;;;;;;;8.97;nan;100634.41;5022756;28;19975;-82
2023/05/13 02:43:41;;;;;;;;;;;;;;;8.92;nan;100620.81;5020246;28;19960;-82
2023/05/13 02:46:06;;;;;;;;;;;;;;;8.88;nan;100614.97;5027558;28;20047;-82
2023/05/13 02:48:31;;;;;;;;;;;;;;;8.84;nan;100618.03;5018833;28;20012;-82
2023/05/13 02:50:56;;;;;;;;;;;;;;;8.80;nan;100616.66;5027015;28;19928;-82
2023/05/13 02:53:22;;;;;;;;;;;;;;;8.77;nan;100614.25;5020245;28;19929;-82
2023/05/13 02:55:48;;;;;;;;;;;;;;;8.75;nan;100619.69;5031518;28;19925;-81
2023/05/13 02:58:13;;;;;;;;;;;;;;;8.73;nan;100619.00;5029604;28;19925;-82
2023/05/13 03:00:38;;;;;;;;;;;;;;;8.73;nan;100619.00;5020976;28;20005;-82
2023/05/13 03:03:03;;;;;;;;;;;;;;;8.75;nan;100614.44;5047671;28;19921;-82
2023/05/13 03:05:28;;;;;;;;;;;;;;;8.75;nan;100611.78;5033261;28;19921;-82
2023/05/13 03:07:54;;;;;;;;;;;;;;;8.76;nan;100612.63;5036285;28;19921;-82
2023/05/13 03:10:19;;;;;;;;;;;;;;;8.75;nan;100609.16;5023759;28;19924;-82
2023/05/13 03:12:44;;;;;;;;;;;;;;;8.74;nan;100609.28;5027393;28;19925;-82
2023/05/13 03:15:10;;;;;;;;;;;;;;;8.70;nan;100608.75;5011987;28;20377;-82
2023/05/13 03:17:35;;;;;;;;;;;;;;;8.65;nan;100610.91;5020038;28;19945;-82
2023/05/13 03:20:00;;;;;;;;;;;;;;;8.61;nan;100613.03;5025588;28;19960;-82
2023/05/13 03:22:25;;;;;;;;;;;;;;;8.55;nan;100607.44;5030747;28;20559;-82
2023/05/13 03:24:50;;;;;;;;;;;;;;;8.53;nan;100610.22;5021551;28;20469;-82
2023/05/13 03:27:16;;;;;;;;;;;;;;;8.49;nan;100614.94;5026493;28;19930;-82
2023/05/13 03:29:41;;;;;;;;;;;;;;;8.51;nan;100612.19;5022958;28;19969;-82
2023/05/13 03:32:06;;;;;;;;;;;;;;;8.55;nan;100615.38;5025623;28;19944;-83
2023/05/13 03:34:32;;;;;;;;;;;;;;;8.62;nan;100619.13;5022168;28;20350;-82
2023/05/13 03:36:57;;;;;;;;;;;;;;;8.65;nan;100614.41;5021432;28;19972;-82
2023/05/13 03:39:24;;;;;;;;;;;;;;;8.66;nan;100623.97;5023645;28;20436;-82
2023/05/13 03:41:49;;;;;;;;;;;;;;;8.67;nan;100638.00;5031266;28;19917;-82
2023/05/13 03:44:15;;;;;;;;;;;;;;;8.70;nan;100633.28;5040040;28;19925;-82
2023/05/13 03:46:40;;;;;;;;;;;;;;;8.75;nan;100624.13;5017388;28;19925;-82
2023/05/13 03:49:05;;;;;;;;;;;;;;;8.74;nan;100625.09;5018909;28;19925;-82
2023/05/13 03:51:32;;;;;;;;;;;;;;;8.70;nan;100621.91;5020543;28;19969;-82
2023/05/13 03:53:58;;;;;;;;;;;;;;;8.66;nan;100620.53;5022867;28;20377;-82
2023/05/13 03:56:23;;;;;;;;;;;;;;;8.58;nan;100621.22;5021859;28;20004;-82
2023/05/13 03:58:48;;;;;;;;;;;;;;;8.56;nan;100620.50;5020924;28;19922;-82
2023/05/13 04:01:13;;;;;;;;;;;;;;;8.54;nan;100626.88;5025118;28;19922;-82
2023/05/13 04:03:40;;;;;;;;;;;;;;;8.54;nan;100632.16;5015810;28;19933;-82
2023/05/13 04:06:05;;;;;;;;;;;;;;;8.57;nan;100637.16;5019254;28;19929;-82
2023/05/13 04:08:30;;;;;;;;;;;;;;;8.61;nan;100639.38;5021344;28;19929;-82
2023/05/13 04:10:56;;;;;;;;;;;;;;;8.67;nan;100645.91;5015109;28;19937;-82
2023/05/13 04:13:21;;;;;;;;;;;;;;;8.71;nan;100640.22;5021116;28;20333;-82
2023/05/13 04:15:47;;;;;;;;;;;;;;;8.79;nan;100654.50;5025231;28;19921;-82
2023/05/13 04:18:12;;;;;;;;;;;;;;;8.88;nan;100654.53;5021989;28;19921;-82
2023/05/13 04:20:38;;;;;;;;;;;;;;;8.99;nan;100650.94;5028431;28;19921;-82
2023/05/13 04:23:03;;;;;;;;;;;;;;;9.10;nan;100655.22;5018796;28;19945;-82
2023/05/13 04:25:28;;;;;;;;;;;;;;;9.23;nan;100661.06;5021291;28;19921;-82
2023/05/13 04:27:53;;;;;;;;;;;;;;;9.39;nan;100660.50;5010874;28;19957;-82
2023/05/13 04:30:19;;;;;;;;;;;;;;;9.57;nan;100655.31;5019171;28;20002;-82
2023/05/13 04:32:44;;;;;;;;;;;;;;;9.71;nan;100661.97;5024726;28;19928;-83
2023/05/13 04:35:10;;;;;;;;;;;;;;;9.81;nan;100654.84;5023725;28;19928;-82
2023/05/13 04:37:35;;;;;;;;;;;;;;;9.96;nan;100661.34;5013585;28;20001;-82
2023/05/13 04:40:00;;;;;;;;;;;;;;;10.04;nan;100659.78;5027411;28;19921;-83
2023/05/13 04:42:25;;;;;;;;;;;;;;;10.09;nan;100668.09;5017974;28;19968;-82
2023/05/13 04:44:51;;;;;;;;;;;;;;;10.14;nan;100665.84;5023276;28;19922;-83
2023/05/13 04:47:16;;;;;;;;;;;;;;;10.20;nan;100675.81;5023220;28;19933;-82
2023/05/13 04:49:41;;;;;;;;;;;;;;;10.28;nan;100669.84;5012463;28;19921;-83
2023/05/13 04:52:07;;;;;;;;;;;;;;;10.38;nan;100679.41;5021733;28;19945;-83
2023/05/13 04:54:34;;;;;;;;;;;;;;;10.55;nan;100674.31;5029801;28;19921;-82
2023/05/13 04:57:00;;;;;;;;;;;;;;;10.69;nan;100671.16;5021763;28;19926;-82
2023/05/13 04:59:25;;;;;;;;;;;;;;;10.80;nan;100673.59;5024210;28;19936;-82
2023/05/13 05:01:51;;;;;;;;;;;;;;;10.91;nan;100674.34;5023940;28;19921;-83
2023/05/13 05:04:16;;;;;;;;;;;;;;;11.00;nan;100676.09;5027973;28;19930;-82
2023/05/13 05:06:41;;;;;;;;;;;;;;;11.06;nan;100667.56;5017100;28;19962;-81
2023/05/13 05:09:06;;;;;;;;;;;;;;;11.11;nan;100675.03;5014287;28;19930;-82
2023/05/13 05:11:31;;;;;;;;;;;;;;;11.12;nan;100677.53;5019941;28;19951;-83
2023/05/13 05:13:57;;;;;;;;;;;;;;;11.21;nan;100681.09;5015774;28;19984;-82
2023/05/13 05:16:22;;;;;;;;;;;;;;;11.31;nan;100675.72;5018231;28;19925;-82
2023/05/13 05:18:47;;;;;;;;;;;;;;;11.43;nan;100677.13;5027596;28;19928;-82
2023/05/13 05:21:12;;;;;;;;;;;;;;;11.54;nan;100682.19;5028801;28;20343;-83
2023/05/13 05:23:38;;;;;;;;;;;;;;;11.69;nan;100685.94;5024312;28;19921;-82
2023/05/13 05:26:03;;;;;;;;;;;;;;;11.93;nan;100681.00;5023638;28;19929;-82
2023/05/13 05:28:28;;;;;;;;;;;;;;;12.29;nan;100692.28;5024360;28;19955;-82
2023/05/13 05:30:54;;;;;;;;;;;;;;;12.69;nan;100694.25;5012713;28;20392;-82
2023/05/13 05:33:19;;;;;;;;;;;;;;;12.99;nan;100688.50;5018976;28;19928;-82
2023/05/13 05:35:44;;;;;;;;;;;;;;;13.17;nan;100686.53;5014575;28;19992;-82
2023/05/13 05:38:10;;;;;;;;;;;;;;;13.39;nan;100693.03;5020378;28;19926;-82
2023/05/13 05:40:38;;;;;;;;;;;;;;;13.77;nan;100694.19;5027082;28;19948;-82
2023/05/13 05:43:03;;;;;;;;;;;;;;;13.91;nan;100692.66;5026990;28;20004;-82
2023/05/13 05:45:28;;;;;;;;;;;;;;;14.03;nan;100695.78;5018455;28;20400;-82
2023/05/13 05:47:54;;;;;;;;;;;;;;;14.24;nan;100700.56;5024166;28;19928;-83
2023/05/13 05:50:19;;;;;;;;;;;;;;;14.57;nan;100705.78;5010348;28;19912;-83
2023/05/13 05:52:44;;;;;;;;;;;;;;;14.89;nan;100703.94;5021111;28;19937;-80
2023/05/13 05:55:09;;;;;;;;;;;;;;;15.28;nan;100704.69;5021446;28;19953;-82
2023/05/13 05:57:35;;;;;;;;;;;;;;;15.66;nan;100698.53;5024407;28;19981;-82
2023/05/13 06:00:00;;;;;;;;;;;;;;;15.96;nan;100706.63;5014583;28;20019;-82
2023/05/13 06:02:25;;;;;;;;;;;;;;;15.65;nan;100705.69;5019224;28;19936;-83
2023/05/13 06:04:50;;;;;;;;;;;;;;;15.71;nan;100714.88;5009500;28;19922;-82
2023/05/13 06:07:15;;;;;;;;;;;;;;;15.82;nan;100716.25;5016591;28;20020;-83
2023/05/13 06:09:40;;;;;;;;;;;;;;;15.90;nan;100719.69;5020426;28;19921;-82
2023/05/13 06:12:06;;;;;;;;;;;;;;;16.01;nan;100720.22;5020870;28;19921;-82
2023/05/13 06:14:31;;;;;;;;;;;;;;;16.29;nan;100723.09;5018889;28;20312;-82
2023/05/13 06:16:56;;;;;;;;;;;;;;;16.37;nan;100714.16;5020040;28;19945;-82
2023/05/13 06:19:21;;;;;;;;;;;;;;;16.31;nan;100716.56;5018234;28;20549;-82
2023/05/13 06:21:47;;;;;;;;;;;;;;;16.33;nan;100713.72;5023161;28;19982;-82
2023/05/13 06:24:12;;;;;;;;;;;;;;;16.39;nan;100717.47;5013241;28;19928;-82
2023/05/13 06:26:37;;;;;;;;;;;;;;;16.40;nan;100713.78;5022518;28;20004;-82
2023/05/13 06:29:03;;;;;;;;;;;;;;;16.74;nan;100718.53;5022860;28;19921;-82
2023/05/13 06:31:28;;;;;;;;;;;;;;;17.32;nan;100719.38;5028457;28;19921;-82
2023/05/13 06:33:53;;;;;;;;;;;;;;;17.82;nan;100724.75;5021078;28;19921;-82
2023/05/13 06:36:18;;;;;;;;;;;;;;;17.93;nan;100718.06;5029509;28;20424;-82
2023/05/13 06:38:43;;;;;;;;;;;;;;;18.38;nan;100723.91;5023355;28;20380;-82
2023/05/13 06:41:08;;;;;;;;;;;;;;;18.71;nan;100723.19;5022427;28;20031;-82
2023/05/13 06:43:34;;;;;;;;;;;;;;;19.19;nan;100718.63;5026842;28;20312;-82
2023/05/13 06:45:59;;;;;;;;;;;;;;;19.67;nan;100717.63;5030378;28;19925;-82
2023/05/13 06:48:25;;;;;;;;;;;;;;;20.08;nan;100724.63;5026516;28;19932;-82
2023/05/13 06:50:50;;;;;;;;;;;;;;;20.42;nan;100714.63;5019917;28;20016;-83
2023/05/13 06:53:15;;;;;;;;;;;;;;;20.57;nan;100707.16;5023020;28;19932;-82
2023/05/13 06:55:41;;;;;;;;;;;;;;;21.03;nan;100714.16;5019853;28;20476;-83
2023/05/13 06:58:07;;;;;;;;;;;;;;;20.78;nan;100714.94;5031101;28;19921;-80
2023/05/13 07:00:35;;;;;;;;;;;;;;;19.75;nan;100697.84;5030088;28;20011;-82
2023/05/13 07:03:03;;;;;;;;;;;;;;;19.67;nan;100705.03;5014696;28;19922;-82
2023/05/13 07:05:32;;;;;;;;;;;;;;;19.64;nan;100702.78;5010334;28;19929;-83
2023/05/13 07:07:57;;;;;;;;;;;;;;;19.57;nan;100710.00;5023790;28;19957;-82
2023/05/13 07:10:24;;;;;;;;;;;;;;;19.90;nan;100711.84;5017837;28;19970;-82
2023/05/13 07:12:50;;;;;;;;;;;;;;;20.36;nan;100711.75;5015508;28;19976;-82
2023/05/13 07:15:15;;;;;;;;;;;;;;;20.44;nan;100708.00;5013127;28;19925;-82
2023/05/13 07:17:42;;;;;;;;;;;;;;;20.67;nan;100704.03;5016513;28;20386;-81
2023/05/13 07:20:07;;;;;;;;;;;;;;;20.76;nan;100705.41;5028596;28;19921;-82
2023/05/13 07:22:33;;;;;;;;;;;;;;;21.22;nan;100707.00;5012452;28;19948;-81
2023/05/13 07:24:58;;;;;;;;;;;;;;;21.21;nan;100705.34;5027225;28;19921;-82
2023/05/13 07:27:23;;;;;;;;;;;;;;;20.84;nan;100707.03;5013071;28;20542;-82
2023/05/13 07:29:48;;;;;;;;;;;;;;;21.31;nan;100711.09;5006757;28;19976;-81
2023/05/13 07:32:13;;;;;;;;;;;;;;;21.65;nan;100708.97;5003219;28;19975;-82
2023/05/13 07:34:40;;;;;;;;;;;;;;;21.44;nan;100703.97;5014195;28;19933;-80
2023/05/13 07:37:05;;;;;;;;;;;;;;;20.42;nan;100693.13;5023943;28;19925;-82
2023/05/13 07:39:30;;;;;;;;;;;;;;;19.71;nan;100703.63;5006613;28;20304;-82
2023/05/13 07:41:59;;;;;;;;;;;;;;;18.97;nan;100706.41;5011731;28;19929;-82
2023/05/13 07:44:25;;;;;;;;;;;;;;;19.01;nan;100704.97;5022519;28;21740;-81
2023/05/13 07:46:52;;;;;;;;;;;;;;;18.85;nan;100703.50;5038593;28;19933;-82
2023/05/13 07:49:17;;;;;;;;;;;;;;;18.77;nan;100715.22;5010768;28;19929;-82
2023/05/13 07:51:44;;;;;;;;;;;;;;;18.89;nan;100705.56;5011874;28;19921;-82
2023/05/13 07:54:09;;;;;;;;;;;;;;;19.00;nan;100706.84;5012284;28;19921;-83
2023/05/13 07:56:34;;;;;;;;;;;;;;;18.96;nan;100716.31;5024288;28;19921;-82
2023/05/13 07:58:59;;;;;;;;;;;;;;;19.42;nan;100709.38;5020899;28;20012;-80
2023/05/13 08:01:25;;;;;;;;;;;;;;;19.16;nan;100707.47;5017025;28;19931;-82
2023/05/13 08:03:53;;;;;;;;;;;;;;;19.27;nan;100702.34;5028046;28;19928;-82
2023/05/13 08:06:18;;;;;;;;;;;;;;;19.41;nan;100702.38;4993578;28;19932;-82
2023/05/13 08:08:43;;;;;;;;;;;;;;;19.61;nan;100697.00;5027900;28;20331;-82
2023/05/13 08:11:08;;;;;;;;;;;;;;;19.84;nan;100710.00;5026053;28;19921;-82
2023/05/13 08:13:33;;;;;;;;;;;;;;;19.76;nan;100702.16;5023387;28;19927;-82
2023/05/13 08:16:00;;;;;;;;;;;;;;;20.03;nan;100703.78;5001478;28;19928;-82
2023/05/13 08:18:25;;;;;;;;;;;;;;;20.44;nan;100701.81;5017693;28;20012;-82
2023/05/13 08:20:51;;;;;;;;;;;;;;;20.56;nan;100692.06;5013040;28;20415;-82
2023/05/13 08:23:16;;;;;;;;;;;;;;;20.40;nan;100693.34;5009651;28;20282;-82
2023/05/13 08:25:41;;;;;;;;;;;;;;;21.10;nan;100696.13;5020901;28;19985;-81
2023/05/13 08:28:06;;;;;;;;;;;;;;;21.38;nan;100698.41;5023302;28;20435;-82
2023/05/13 08:30:31;;;;;;;;;;;;;;;21.55;nan;100692.50;5029174;28;19921;-81
2023/05/13 08:32:56;;;;;;;;;;;;;;;21.51;nan;100688.59;5018374;28;19922;-82
2023/05/13 08:35:22;;;;;;;;;;;;;;;21.65;nan;100683.94;5022424;28;19925;-82
2023/05/13 08:37:47;;;;;;;;;;;;;;;21.76;nan;100686.72;5024491;28;20043;-82
2023/05/13 08:40:13;;;;;;;;;;;;;;;21.99;nan;100687.94;5022514;28;19922;-81
2023/05/13 08:42:39;;;;;;;;;;;;;;;22.60;nan;100684.34;5016400;28;19960;-83
2023/05/13 08:45:06;;;;;;;;;;;;;;;22.70;nan;100678.41;5030798;23;19909;-87
2023/05/13 08:47:38;;;;;;;;;;;;;;;22.26;nan;100693.88;4966228;28;19974;-87
2023/05/13 08:50:04;;;;;;;;;;;;;;;22.48;nan;100691.56;4973259;28;19973;-88
2023/05/13 08:52:30;;;;;;;;;;;;;;;22.95;nan;100699.00;4967355;28;19922;-87
2023/05/13 08:54:57;;;;;;;;;;;;;;;23.54;nan;100692.72;4966369;28;19937;-89
2023/05/13 08:57:22;;;;;;;;;;;;;;;24.45;nan;100688.78;4970707;28;20388;-87
2023/05/13 08:59:48;;;;;;;;;;;;;;;23.45;nan;100686.00;4972080;28;19928;-88
2023/05/13 09:02:13;;;;;;;;;;;;;;;23.38;nan;100690.69;4974797;28;20251;-86
2023/05/13 09:04:40;;;;;;;;;;;;;;;24.00;nan;100694.84;4969881;28;20020;-87
2023/05/13 09:07:06;;;;;;;;;;;;;;;24.44;nan;100684.44;4982812;28;19973;-86
2023/05/13 09:09:31;;;;;;;;;;;;;;;24.93;nan;100690.25;4968840;28;19976;-86
2023/05/13 09:11:57;;;;;;;;;;;;;;;25.67;nan;100689.31;4973055;28;19922;-86
2023/05/13 09:14:25;;;;;;;;;;;;;;;26.17;nan;100693.84;4968219;28;19922;-87
2023/05/13 09:16:51;;;;;;;;;;;;;;;25.68;nan;100693.69;4969010;28;20008;-88
2023/05/13 09:19:16;;;;;;;;;;;;;;;25.56;nan;100688.38;4967075;28;21615;-87
2023/05/13 09:21:42;;;;;;;;;;;;;;;25.90;nan;100691.88;4982743;28;20395;-87
2023/05/13 09:24:12;;;;;;;;;;;;;;;25.95;nan;100691.13;4981796;28;19926;-87
2023/05/13 09:26:37;;;;;;;;;;;;;;;25.97;nan;100691.69;4987672;28;19926;-87
2023/05/13 09:29:21;;;;;;;;;;;;;;;25.55;nan;100684.84;4969930;28;19976;-87
2023/05/13 09:31:48;;;;;;;;;;;;;;;24.97;nan;100686.00;4977492;28;19922;-86
2023/05/13 09:34:14;;;;;;;;;;;;;;;24.96;nan;100685.19;4961630;28;19923;-87
2023/05/13 09:36:40;;;;;;;;;;;;;;;24.98;nan;100690.38;4961425;28;20295;-86
2023/05/13 09:39:05;;;;;;;;;;;;;;;24.82;nan;100683.84;4962840;28;20344;-87
2023/05/13 09:41:30;;;;;;;;;;;;;;;24.88;nan;100682.03;4977172;28;19961;-86
2023/05/13 09:44:03;;;;;;;;;;;;;;;24.40;nan;100675.16;4976421;28;19922;-87
2023/05/13 09:46:29;;;;;;;;;;;;;;;24.91;nan;100673.47;4987875;28;19930;-87
2023/05/13 09:48:56;;;;;;;;;;;;;;;24.95;nan;100685.41;4981899;28;19937;-87
2023/05/13 09:51:26;;;;;;;;;;;;;;;24.95;nan;100677.31;4969262;28;20410;-86
2023/05/13 09:53:51;;;;;;;;;;;;;;;24.46;nan;100674.22;4967702;28;20264;-86
2023/05/13 09:56:20;;;;;;;;;;;;;;;24.53;nan;100683.03;4986633;28;19945;-87
2023/05/13 09:58:49;;;;;;;;;;;;;;;24.53;nan;100677.63;4972852;28;20092;-87
2023/05/13 10:01:15;;;;;;;;;;;;;;;23.07;nan;100679.16;4960793;28;19926;-87
2023/05/13 10:03:40;;;;;;;;;;;;;;;23.61;nan;100678.28;4967967;28;20295;-86
2023/05/13 10:06:05;;;;;;;;;;;;;;;24.00;nan;100676.75;4968113;28;19941;-86
2023/05/13 10:08:31;;;;;;;;;;;;;;;23.79;nan;100680.91;4970272;28;20008;-86
2023/05/13 10:10:56;;;;;;;;;;;;;;;23.83;nan;100684.75;4987671;28;19922;-86
2023/05/13 10:13:22;;;;;;;;;;;;;;;23.03;nan;100682.56;4975800;28;19923;-86
2023/05/13 10:15:49;;;;;;;;;;;;;;;23.77;nan;100684.91;4970708;28;19923;-87
2023/05/13 10:18:15;;;;;;;;;;;;;;;24.41;nan;100674.94;4975857;28;20005;-85
2023/05/13 10:20:41;;;;;;;;;;;;;;;24.59;nan;100673.94;4967914;28;19985;-85
2023/05/13 10:23:06;;;;;;;;;;;;;;;24.12;nan;100672.19;4960389;28;19922;-86
2023/05/13 10:25:32;;;;;;;;;;;;;;;24.25;nan;100675.69;4997558;28;19922;-86
2023/05/13 10:27:57;;;;;;;;;;;;;;;24.82;nan;100669.50;4973558;28;19926;-87
2023/05/13 10:30:25;;;;;;;;;;;;;;;24.99;nan;100679.28;4969993;28;19926;-86
2023/05/13 10:32:50;;;;;;;;;;;;;;;24.34;nan;100671.53;4974251;28;19922;-84
2023/05/13 10:35:17;;;;;;;;;;;;;;;24.20;nan;100676.38;4973323;28;20052;-84
2023/05/13 10:37:57;;;;;;;;;;;;;;;24.53;nan;100664.94;4984373;28;19921;-87
2023/05/13 10:40:41;;;;;;;;;;;;;;;25.12;nan;100671.91;4978464;28;19946;-85
2023/05/13 10:43:19;;;;;;;;;;;;;;;25.21;nan;100665.06;4980443;28;19928;-84
2023/05/13 10:45:55;;;;;;;;;;;;;;;25.44;nan;100672.22;4988952;28;20523;-84
2023/05/13 10:48:21;;;;;;;;;;;;;;;25.98;nan;100669.78;4968018;28;20390;-86
2023/05/13 10:51:06;;;;;;;;;;;;;;;25.92;nan;100672.66;4973265;28;20013;-86
2023/05/13 10:53:41;;;;;;;;;;;;;;;25.13;nan;100663.56;4978241;28;19952;-84
2023/05/13 10:56:06;;;;;;;;;;;;;;;23.39;nan;100665.38;4959639;28;19922;-86
2023/05/13 10:58:33;;;;;;;;;;;;;;;22.83;nan;100669.31;4969575;28;20001;-84
2023/05/13 11:01:12;;;;;;;;;;;;;;;23.63;nan;100671.59;4985653;28;20388;-85
2023/05/13 11:03:39;;;;;;;;;;;;;;;24.84;nan;100665.50;4969797;28;19918;-85
2023/05/13 11:06:18;;;;;;;;;;;;;;;24.66;nan;100663.81;4970222;28;20387;-86
2023/05/13 11:08:47;;;;;;;;;;;;;;;25.12;nan;100661.09;4997758;28;19921;-87
2023/05/13 11:11:17;;;;;;;;;;;;;;;24.40;nan;100642.72;4988508;28;19918;-84
2023/05/13 11:13:42;;;;;;;;;;;;;;;24.57;nan;100647.16;4986815;28;19917;-85
2023/05/13 11:16:09;;;;;;;;;;;;;;;23.50;nan;100644.81;4981002;28;19917;-87
2023/05/13 11:18:35;;;;;;;;;;;;;;;22.99;nan;100641.72;4992939;28;19914;-85
2023/05/13 11:21:02;;;;;;;;;;;;;;;22.49;nan;100644.69;4993246;28;19922;-86
2023/05/13 11:23:27;;;;;;;;;;;;;;;21.68;nan;100640.44;4985660;28;19922;-85
2023/05/13 11:26:09;;;;;;;;;;;;;;;21.81;nan;100634.91;4995463;28;20352;-84
2023/05/13 11:28:53;;;;;;;;;;;;;;;22.69;nan;100645.25;4988897;28;20399;-84
2023/05/13 11:31:20;;;;;;;;;;;;;;;24.17;nan;100630.94;4986399;28;20118;-85
2023/05/13 11:34:04;;;;;;;;;;;;;;;25.56;nan;100626.09;4975677;28;20201;-84
2023/05/13 11:36:29;;;;;;;;;;;;;;;25.00;nan;100636.81;4993716;28;19922;-85
2023/05/13 11:39:03;;;;;;;;;;;;;;;24.74;nan;100639.09;4993464;28;19925;-84
2023/05/13 11:41:30;;;;;;;;;;;;;;;24.57;nan;100643.63;4989196;28;20026;-85
2023/05/13 11:43:58;;;;;;;;;;;;;;;25.05;nan;100645.03;4988647;28;19932;-84
2023/05/13 11:46:24;;;;;;;;;;;;;;;24.71;nan;100636.03;4991546;28;19930;-84
2023/05/13 11:48:50;;;;;;;;;;;;;;;23.85;nan;100642.16;4992720;28;19925;-85
2023/05/13 11:51:17;;;;;;;;;;;;;;;23.02;nan;100627.75;4986989;28;19921;-84
2023/05/13 11:53:42;;;;;;;;;;;;;;;22.75;nan;100640.00;4993269;28;19918;-84
2023/05/13 11:56:09;;;;;;;;;;;;;;;22.92;nan;100629.38;4992942;28;19973;-84
2023/05/13 11:58:34;;;;;;;;;;;;;;;23.88;nan;100636.28;4995550;28;19918;-85
2023/05/13 12:00:59;;;;;;;;;;;;;;;24.68;nan;100626.53;4994403;28;19998;-84
2023/05/13 12:03:26;;;;;;;;;;;;;;;24.61;nan;100623.16;4984252;28;19930;-84
2023/05/13 12:05:59;;;;;;;;;;;;;;;24.28;nan;100629.25;4993919;28;20391;-86
2023/05/13 12:08:24;;;;;;;;;;;;;;;24.17;nan;100628.25;4992348;28;19972;-84
2023/05/13 12:10:50;;;;;;;;;;;;;;;24.34;nan;100626.41;4995063;28;19918;-86
2023/05/13 12:13:15;;;;;;;;;;;;;;;24.23;nan;100627.25;4981167;28;19960;-86
2023/05/13 12:15:40;;;;;;;;;;;;;;;23.74;nan;100632.19;4971537;28;20304;-85
2023/05/13 12:18:06;;;;;;;;;;;;;;;24.42;nan;100627.91;4974735;28;20503;-83
2023/05/13 12:20:32;;;;;;;;;;;;;;;24.66;nan;100625.13;4976621;28;20219;-83
2023/05/13 12:22:59;;;;;;;;;;;;;;;25.13;nan;100622.16;4975282;28;20342;-83
2023/05/13 12:25:30;;;;;;;;;;;;;;;24.88;nan;100622.53;4974500;28;19926;-83
2023/05/13 12:27:56;;;;;;;;;;;;;;;25.28;nan;100622.41;4972083;28;19930;-85
2023/05/13 12:30:21;;;;;;;;;;;;;;;25.24;nan;100623.97;4966603;28;20435;-84
2023/05/13 12:32:46;;;;;;;;;;;;;;;25.16;nan;100622.47;4978165;28;19973;-84
2023/05/13 12:35:13;;;;;;;;;;;;;;;24.79;nan;100625.66;4966831;28;21256;-84
2023/05/13 12:37:38;;;;;;;;;;;;;;;24.78;nan;100628.59;4969348;28;19977;-84
2023/05/13 12:40:10;;;;;;;;;;;;;;;24.24;nan;100628.09;4965467;28;19926;-84
2023/05/13 12:42:35;;;;;;;;;;;;;;;23.72;nan;100629.69;4986768;28;19922;-83
2023/05/13 12:45:01;;;;;;;;;;;;;;;23.39;nan;100632.16;4971820;28;20281;-85
2023/05/13 12:47:26;;;;;;;;;;;;;;;23.49;nan;100627.00;4974689;28;19928;-84
2023/05/13 12:49:57;;;;;;;;;;;;;;;23.75;nan;100628.44;4972685;28;19933;-84
2023/05/13 12:52:22;;;;;;;;;;;;;;;23.92;nan;100623.13;4985100;28;20406;-85
2023/05/13 12:54:47;;;;;;;;;;;;;;;23.98;nan;100621.34;4987616;28;20005;-86